sensor_id;sensor_type;location;lat;lon;timestamp;pressure;altitude;pressure_sealevel;temperature;humidity
9235;BME280;4652;42.716;23.218;2023-03-12T02:25:30;94033.59;;;2.65;100.00
9235;BME280;4652;42.716;23.218;2023-03-12T02:32:20;93981.28;;;2.14;100.00
9235;BME280;4652;42.716;23.218;2023-03-12T02:39:04;94043.50;;;2.28;100.00
9235;BME280;4652;42.716;23.218;2023-03-12T02:45:48;94049.25;;;2.10;100.00
9235;BME280;4652;42.716;23.218;2023-03-12T02:52:30;94070.66;;;1.98;100.00
9235;BME280;4652;42.716;23.218;2023-03-12T02:59:16;94055.44;;;1.89;100.00
9235;BME280;4652;42.716;23.218;2023-03-12T03:06:01;94078.47;;;2.10;100.00
9235;BME280;4652;42.716;23.218;2023-03-12T03:12:43;94079.00;;;2.12;100.00
9235;BME280;4652;42.716;23.218;2023-03-12T03:19:26;94086.03;;;2.33;100.00
9235;BME280;4652;42.716;23.218;2023-03-12T03:26:10;94074.66;;;2.01;100.00
9235;BME280;4652;42.716;23.218;2023-03-12T03:32:52;94094.66;;;2.13;100.00
9235;BME280;4652;42.716;23.218;2023-03-12T03:39:35;94093.72;;;1.93;100.00
9235;BME280;4652;42.716;23.218;2023-03-12T03:46:18;94121.09;;;1.98;100.00
9235;BME280;4652;42.716;23.218;2023-03-12T03:53:00;94117.16;;;1.74;100.00
9235;BME280;4652;42.716;23.218;2023-03-12T03:59:42;94140.38;;;1.89;100.00
9235;BME280;4652;42.716;23.218;2023-03-12T04:06:26;94124.56;;;1.72;100.00
9235;BME280;4652;42.716;23.218;2023-03-12T04:13:09;94115.91;;;1.55;100.00
9235;BME280;4652;42.716;23.218;2023-03-12T04:19:51;94157.47;;;1.71;100.00
9235;BME280;4652;42.716;23.218;2023-03-12T04:26:34;94160.72;;;1.51;100.00
9235;BME280;4652;42.716;23.218;2023-03-12T04:33:17;94154.78;;;1.44;100.00
9235;BME280;4652;42.716;23.218;2023-03-12T04:40:00;94131.22;;;1.21;100.00
9235;BME280;4652;42.716;23.218;2023-03-12T04:46:44;94164.06;;;1.42;100.00
9235;BME280;4652;42.716;23.218;2023-03-12T04:53:26;94185.53;;;1.40;100.00
9235;BME280;4652;42.716;23.218;2023-03-12T05:00:09;94195.81;;;1.58;100.00
9235;BME280;4652;42.716;23.218;2023-03-12T05:06:54;94194.28;;;1.62;100.00
9235;BME280;4652;42.716;23.218;2023-03-12T05:13:36;94197.81;;;1.46;100.00
9235;BME280;4652;42.716;23.218;2023-03-12T05:20:18;94230.09;;;1.87;100.00
9235;BME280;4652;42.716;23.218;2023-03-12T05:27:02;94228.38;;;2.02;100.00
9235;BME280;4652;42.716;23.218;2023-03-12T05:33:44;94244.66;;;2.11;100.00
9235;BME280;4652;42.716;23.218;2023-03-12T05:40:27;94254.03;;;2.45;100.00
9235;BME280;4652;42.716;23.218;2023-03-12T05:47:10;94258.84;;;2.85;100.00
9235;BME280;4652;42.716;23.218;2023-03-12T05:53:52;94266.72;;;4.36;96.72
9235;BME280;4652;42.716;23.218;2023-03-12T06:00:35;94245.88;;;13.42;49.77
9235;BME280;4652;42.716;23.218;2023-03-12T06:07:19;94245.84;;;16.58;40.74
9235;BME280;4652;42.716;23.218;2023-03-12T06:14:01;94244.91;;;18.13;37.84
9235;BME280;4652;42.716;23.218;2023-03-12T06:20:43;94244.91;;;18.13;37.84
9235;BME280;4652;42.716;23.218;2023-03-12T06:27:27;94244.22;;;18.94;34.92
9235;BME280;4652;42.716;23.218;2023-03-12T06:34:09;94248.09;;;17.72;36.07
9235;BME280;4652;42.716;23.218;2023-03-12T06:40:55;94299.06;;;16.71;36.55
9235;BME280;4652;42.716;23.218;2023-03-12T06:47:39;94301.03;;;13.76;39.88
9235;BME280;4652;42.716;23.218;2023-03-12T06:54:21;94318.31;;;14.93;39.34
9235;BME280;4652;42.716;23.218;2023-03-12T07:01:04;94336.44;;;14.17;39.13
9235;BME280;4652;42.716;23.218;2023-03-12T07:07:47;94322.19;;;13.99;39.48
9235;BME280;4652;42.716;23.218;2023-03-12T07:14:30;94328.63;;;14.24;39.32
9235;BME280;4652;42.716;23.218;2023-03-12T07:21:12;94350.28;;;15.29;38.66
9235;BME280;4652;42.716;23.218;2023-03-12T07:27:57;94350.53;;;15.65;37.34
9235;BME280;4652;42.716;23.218;2023-03-12T07:34:39;94344.69;;;17.90;34.71
9235;BME280;4652;42.716;23.218;2023-03-12T07:41:21;94344.56;;;16.37;35.37
9235;BME280;4652;42.716;23.218;2023-03-12T07:48:06;94362.19;;;17.25;35.35
9235;BME280;4652;42.716;23.218;2023-03-12T07:54:48;94379.63;;;15.06;37.75
9235;BME280;4652;42.716;23.218;2023-03-12T09:25:20;94403.03;;;6.90;53.86
9235;BME280;4652;42.716;23.218;2023-03-12T09:32:03;94429.16;;;7.47;54.00
9235;BME280;4652;42.716;23.218;2023-03-12T09:38:45;94434.38;;;7.28;52.74
9235;BME280;4652;42.716;23.218;2023-03-12T09:45:31;94434.91;;;7.30;52.87
9235;BME280;4652;42.716;23.218;2023-03-12T09:52:19;94431.50;;;7.58;53.56
9235;BME280;4652;42.716;23.218;2023-03-12T09:59:02;94426.78;;;7.45;52.27
9235;BME280;4652;42.716;23.218;2023-03-12T10:05:55;94432.06;;;7.55;51.60
9235;BME280;4652;42.716;23.218;2023-03-12T10:12:47;94415.00;;;7.75;51.57
9235;BME280;4652;42.716;23.218;2023-03-12T10:19:49;94430.63;;;7.97;50.74
9235;BME280;4652;42.716;23.218;2023-03-12T10:26:39;94419.34;;;7.37;49.21
9235;BME280;4652;42.716;23.218;2023-03-12T14:32:02;94433.13;;;8.46;47.79
9235;BME280;4652;42.716;23.218;2023-03-12T14:38:46;94452.09;;;8.25;48.48
9235;BME280;4652;42.716;23.218;2023-03-12T14:45:29;94440.78;;;8.57;47.25
9235;BME280;4652;42.716;23.218;2023-03-12T14:52:14;94452.00;;;8.59;46.86
9235;BME280;4652;42.716;23.218;2023-03-12T14:59:22;94452.69;;;8.70;47.80
9235;BME280;4652;42.716;23.218;2023-03-12T15:06:13;94454.25;;;8.76;48.16
9235;BME280;4652;42.716;23.218;2023-03-12T15:12:58;94468.72;;;8.27;48.27
9235;BME280;4652;42.716;23.218;2023-03-12T15:19:41;94440.34;;;7.59;49.92
9235;BME280;4652;42.716;23.218;2023-03-12T15:26:28;94468.06;;;7.39;49.77
9235;BME280;4652;42.716;23.218;2023-03-12T15:33:21;94479.88;;;7.33;50.52
9235;BME280;4652;42.716;23.218;2023-03-12T16:07:11;94531.06;;;6.32;53.45
9235;BME280;4652;42.716;23.218;2023-03-12T16:14:00;94567.97;;;6.30;53.78
9235;BME280;4652;42.716;23.218;2023-03-12T16:20:44;94562.63;;;5.85;54.38
9235;BME280;4652;42.716;23.218;2023-03-12T16:27:27;94593.09;;;5.89;55.45
9235;BME280;4652;42.716;23.218;2023-03-12T16:34:10;94590.38;;;5.74;55.66
9235;BME280;4652;42.716;23.218;2023-03-12T16:40:52;94613.84;;;5.62;55.38
9235;BME280;4652;42.716;23.218;2023-03-12T16:47:36;94620.13;;;5.30;56.03
9235;BME280;4652;42.716;23.218;2023-03-12T16:54:18;94646.31;;;5.39;57.01
9235;BME280;4652;42.716;23.218;2023-03-12T17:26:51;94688.28;;;4.96;58.63
9235;BME280;4652;42.716;23.218;2023-03-12T17:33:34;94715.81;;;5.02;59.10
9235;BME280;4652;42.716;23.218;2023-03-12T17:40:17;94696.00;;;4.93;59.91
9235;BME280;4652;42.716;23.218;2023-03-12T17:47:01;94737.81;;;5.19;61.88
9235;BME280;4652;42.716;23.218;2023-03-12T17:53:43;94758.09;;;5.25;62.62
9235;BME280;4652;42.716;23.218;2023-03-12T18:00:25;94757.53;;;4.81;64.19
9235;BME280;4652;42.716;23.218;2023-03-12T18:07:09;94778.47;;;4.67;63.41
9235;BME280;4652;42.716;23.218;2023-03-12T18:13:52;94786.44;;;4.36;67.68
9235;BME280;4652;42.716;23.218;2023-03-12T18:20:34;94797.28;;;4.02;72.70
9235;BME280;4652;42.716;23.218;2023-03-12T18:27:17;94784.25;;;3.84;75.71
9235;BME280;4652;42.716;23.218;2023-03-12T18:33:59;94813.81;;;3.61;72.56
9235;BME280;4652;42.716;23.218;2023-03-12T18:40:42;94792.25;;;3.08;83.30
9235;BME280;4652;42.716;23.218;2023-03-12T18:47:25;94823.16;;;2.92;88.85
9235;BME280;4652;42.716;23.218;2023-03-12T18:54:08;94830.72;;;2.83;88.58
9235;BME280;4652;42.716;23.218;2023-03-12T19:00:50;94838.03;;;2.76;91.14
9235;BME280;4652;42.716;23.218;2023-03-12T19:07:34;94836.50;;;2.80;90.29
9235;BME280;4652;42.716;23.218;2023-03-12T19:14:16;94851.16;;;2.66;83.78
9235;BME280;4652;42.716;23.218;2023-03-12T19:20:58;94869.50;;;2.51;88.02
9235;BME280;4652;42.716;23.218;2023-03-12T19:27:43;94883.31;;;2.25;91.86
9235;BME280;4652;42.716;23.218;2023-03-12T19:34:25;94862.13;;;2.02;95.17
9235;BME280;4652;42.716;23.218;2023-03-12T19:41:07;94867.78;;;2.05;96.91
9235;BME280;4652;42.716;23.218;2023-03-12T19:47:51;94877.16;;;1.96;95.44
9235;BME280;4652;42.716;23.218;2023-03-12T19:54:33;94907.88;;;1.92;96.64
9235;BME280;4652;42.716;23.218;2023-03-12T20:31:45;94953.31;;;2.30;83.12
9235;BME280;4652;42.716;23.218;2023-03-12T20:38:27;94961.63;;;2.22;83.86
9235;BME280;4652;42.716;23.218;2023-03-12T20:45:10;94943.31;;;2.09;84.24
9235;BME280;4652;42.716;23.218;2023-03-12T20:51:54;94970.06;;;2.19;83.68
9235;BME280;4652;42.716;23.218;2023-03-12T20:58:36;94971.44;;;2.22;84.04
9235;BME280;4652;42.716;23.218;2023-03-12T21:05:18;94971.00;;;2.13;86.49
9235;BME280;4652;42.716;23.218;2023-03-12T21:12:02;94966.84;;;1.94;86.56
9235;BME280;4652;42.716;23.218;2023-03-12T21:18:44;94989.63;;;1.90;89.12
9235;BME280;4652;42.716;23.218;2023-03-12T21:25:26;94983.25;;;1.79;89.20
9235;BME280;4652;42.716;23.218;2023-03-12T21:32:10;95006.91;;;1.69;89.56
9235;BME280;4652;42.716;23.218;2023-03-12T21:38:52;94986.38;;;1.65;88.82
9235;BME280;4652;42.716;23.218;2023-03-12T21:45:34;94998.25;;;1.74;86.87
9235;BME280;4652;42.716;23.218;2023-03-12T21:52:18;94980.03;;;1.54;86.73
9235;BME280;4652;42.716;23.218;2023-03-12T21:59:00;94995.81;;;1.72;85.68
9235;BME280;4652;42.716;23.218;2023-03-12T22:05:42;94990.53;;;1.72;81.85
9235;BME280;4652;42.716;23.218;2023-03-12T22:12:31;94998.84;;;1.76;84.35
9235;BME280;4652;42.716;23.218;2023-03-12T22:19:14;95004.59;;;1.73;84.43
9235;BME280;4652;42.716;23.218;2023-03-12T22:25:59;95011.19;;;1.70;83.68
9235;BME280;4652;42.716;23.218;2023-03-12T22:32:42;95010.38;;;1.70;84.90
9235;BME280;4652;42.716;23.218;2023-03-12T22:39:24;95008.16;;;1.55;83.35
9235;BME280;4652;42.716;23.218;2023-03-12T22:46:06;95005.94;;;1.52;83.97
9235;BME280;4652;42.716;23.218;2023-03-12T22:52:50;95004.13;;;1.53;85.05
9235;BME280;4652;42.716;23.218;2023-03-12T22:59:32;94994.59;;;1.22;91.40
9235;BME280;4652;42.716;23.218;2023-03-12T23:06:16;95012.44;;;1.15;94.17
9235;BME280;4652;42.716;23.218;2023-03-12T23:13:00;95019.09;;;0.76;100.00
9235;BME280;4652;42.716;23.218;2023-03-12T23:19:42;95034.50;;;0.49;100.00
9235;BME280;4652;42.716;23.218;2023-03-12T23:26:25;95023.81;;;0.20;100.00
9235;BME280;4652;42.716;23.218;2023-03-12T23:33:09;95043.13;;;0.27;100.00
9235;BME280;4652;42.716;23.218;2023-03-12T23:39:51;95040.91;;;0.24;100.00
9235;BME280;4652;42.716;23.218;2023-03-12T23:46:33;95059.06;;;0.20;100.00
9235;BME280;4652;42.716;23.218;2023-03-12T23:53:17;95031.09;;;-0.12;100.00
9235;BME280;4652;42.716;23.218;2023-03-12T23:59:59;95060.19;;;-0.12;100.00
